Time;durP1;ratioP1;P1;durP2;ratioP2;P2;SDS_P1;SDS_P2;PMS_P1;PMS_P2;Temp;Humidity;BMP_temperature;BMP_pressure;BME280_temperature;BME280_humidity;BME280_pressure;Samples;Min_cycle;Max_cycle;Signal;HPM_P1;HPM_P2
2020/12/09 00:01:45;;;;;;;0.40;0.30;;;7.30;89.80;;;;;;5033019;28;20032;-63
2020/12/09 00:04:11;;;;;;;0.57;0.40;;;7.20;89.60;;;;;;5032709;28;20394;-63
2020/12/09 00:06:38;;;;;;;0.30;0.30;;;7.20;89.30;;;;;;5032812;28;20117;-63
2020/12/09 00:09:09;;;;;;;1.90;0.47;;;7.20;89.60;;;;;;5033159;28;20474;-63
2020/12/09 00:11:36;;;;;;;0.53;0.50;;;7.20;89.80;;;;;;5033053;28;20026;-62
2020/12/09 00:14:04;;;;;;;2.27;0.57;;;7.20;90.00;;;;;;5032717;28;20490;-62
2020/12/09 00:16:30;;;;;;;0.70;0.40;;;7.20;90.20;;;;;;5032613;28;20025;-63
2020/12/09 00:18:56;;;;;;;1.70;0.80;;;7.20;90.20;;;;;;5032757;28;20092;-62
2020/12/09 00:21:23;;;;;;;1.10;0.60;;;7.20;90.30;;;;;;5032725;28;20030;-63
2020/12/09 00:23:52;;;;;;;1.83;0.70;;;7.30;90.30;;;;;;5032782;28;20025;-62
2020/12/09 00:26:18;;;;;;;0.37;0.30;;;7.20;90.20;;;;;;5032891;28;20482;-63
2020/12/09 00:28:45;;;;;;;0.90;0.60;;;7.20;90.20;;;;;;5032676;28;20421;-63
2020/12/09 00:31:16;;;;;;;1.13;0.63;;;7.20;90.20;;;;;;5032644;28;20033;-62
2020/12/09 00:33:42;;;;;;;0.63;0.40;;;7.20;90.20;;;;;;5032588;28;20091;-62
2020/12/09 00:36:08;;;;;;;0.70;0.40;;;7.20;90.20;;;;;;5032517;28;20425;-62
2020/12/09 00:38:34;;;;;;;1.20;0.40;;;7.20;90.20;;;;;;5032653;28;20532;-62
2020/12/09 00:41:00;;;;;;;1.47;0.40;;;7.20;90.20;;;;;;5032348;28;20029;-62
2020/12/09 00:43:25;;;;;;;0.50;0.50;;;7.20;90.20;;;;;;5032500;28;20021;-62
2020/12/09 00:45:52;;;;;;;1.37;0.60;;;7.20;90.30;;;;;;5032313;28;20120;-63
2020/12/09 00:48:18;;;;;;;1.20;0.50;;;7.20;90.20;;;;;;5032515;28;20036;-63
2020/12/09 00:50:43;;;;;;;1.73;0.60;;;7.20;90.20;;;;;;5032331;28;20022;-63
2020/12/09 00:53:09;;;;;;;0.90;0.60;;;7.20;90.00;;;;;;5032346;28;20486;-62
2020/12/09 00:55:34;;;;;;;0.77;0.70;;;7.20;90.00;;;;;;5032500;28;20026;-62
2020/12/09 00:58:00;;;;;;;1.23;0.80;;;7.20;90.00;;;;;;5032548;28;20025;-62
2020/12/09 01:00:26;;;;;;;1.20;0.73;;;7.20;90.00;;;;;;5032646;28;20057;-62
2020/12/09 01:02:52;;;;;;;6.00;3.70;;;7.20;90.00;;;;;;5034315;28;20029;-62
2020/12/09 01:05:17;;;;;;;0.90;0.67;;;7.10;89.90;;;;;;5035422;28;20041;-62
2020/12/09 01:07:43;;;;;;;0.87;0.70;;;7.10;90.10;;;;;;5035695;28;20034;-62
2020/12/09 01:10:09;;;;;;;1.00;0.70;;;7.10;89.70;;;;;;5035872;28;20075;-62
2020/12/09 01:12:41;;;;;;;1.20;0.70;;;7.10;89.70;;;;;;5035733;28;20034;-62
2020/12/09 01:15:08;;;;;;;1.03;0.60;;;7.10;89.70;;;;;;5035849;28;20079;-63
2020/12/09 01:17:34;;;;;;;0.90;0.60;;;7.10;89.80;;;;;;5035487;28;20129;-62
2020/12/09 01:20:02;;;;;;;0.70;0.50;;;7.10;89.90;;;;;;5035844;28;20073;-62
2020/12/09 01:22:28;;;;;;;0.57;0.40;;;7.10;90.00;;;;;;5035287;28;20029;-62
2020/12/09 01:24:54;;;;;;;0.80;0.50;;;7.10;90.00;;;;;;5035557;28;20033;-62
2020/12/09 01:27:23;;;;;;;0.57;0.50;;;7.10;90.00;;;;;;5035522;28;20113;-63
2020/12/09 01:29:50;;;;;;;1.47;0.60;;;7.10;90.00;;;;;;5035731;28;20025;-62
2020/12/09 01:32:16;;;;;;;1.13;0.47;;;7.10;90.00;;;;;;5035395;28;20367;-63
2020/12/09 01:34:41;;;;;;;0.37;0.30;;;7.10;90.00;;;;;;5035163;28;20090;-62
2020/12/09 01:37:07;;;;;;;0.93;0.40;;;7.10;90.00;;;;;;5035384;28;20047;-62
2020/12/09 01:39:33;;;;;;;1.30;0.40;;;7.10;90.00;;;;;;5035605;28;20032;-62
2020/12/09 01:41:59;;;;;;;0.60;0.40;;;7.00;90.10;;;;;;5035156;28;20026;-62
2020/12/09 01:44:24;;;;;;;2.07;0.90;;;7.10;90.20;;;;;;5035075;28;20449;-62
2020/12/09 01:46:52;;;;;;;2.93;0.57;;;7.00;90.30;;;;;;5035064;28;20041;-62
2020/12/09 01:49:18;;;;;;;1.33;0.80;;;7.00;90.30;;;;;;5035097;28;20171;-63
2020/12/09 01:51:44;;;;;;;5.17;0.77;;;7.00;90.40;;;;;;5034995;28;20525;-62
2020/12/09 01:54:09;;;;;;;1.40;0.80;;;7.10;90.50;;;;;;5035097;28;20032;-62
2020/12/09 01:56:35;;;;;;;1.10;0.53;;;7.10;90.60;;;;;;5034819;28;20502;-62
2020/12/09 01:59:01;;;;;;;1.00;0.60;;;7.00;90.60;;;;;;5032421;28;20095;-62
2020/12/09 02:01:27;;;;;;;0.73;0.50;;;7.10;90.60;;;;;;5032158;28;20037;-62
2020/12/09 02:03:52;;;;;;;0.77;0.40;;;7.10;90.50;;;;;;5032318;28;20502;-62
2020/12/09 02:06:19;;;;;;;0.73;0.50;;;7.10;90.50;;;;;;5034483;28;20091;-62
2020/12/09 02:08:46;;;;;;;1.00;0.70;;;7.10;90.50;;;;;;5034685;28;20075;-62
2020/12/09 02:11:13;;;;;;;2.13;0.60;;;7.10;90.60;;;;;;5034651;28;20479;-62
2020/12/09 02:13:47;;;;;;;1.83;0.80;;;7.10;90.70;;;;;;5033649;28;20033;-62
2020/12/09 02:16:14;;;;;;;2.07;0.77;;;7.10;90.80;;;;;;5034361;28;20026;-62
2020/12/09 02:18:41;;;;;;;3.17;1.20;;;7.10;90.80;;;;;;5034293;28;20053;-62
2020/12/09 02:21:07;;;;;;;2.10;0.87;;;7.10;90.90;;;;;;5034485;28;20029;-62
2020/12/09 02:23:33;;;;;;;1.00;0.60;;;7.10;90.90;;;;;;5034307;28;20104;-62
2020/12/09 02:25:59;;;;;;;1.17;0.90;;;7.20;90.90;;;;;;5034317;28;20120;-62
2020/12/09 02:28:25;;;;;;;1.40;0.70;;;7.10;90.90;;;;;;5034030;28;20045;-62
2020/12/09 02:30:51;;;;;;;3.67;1.50;;;7.10;90.90;;;;;;5034659;28;20029;-62
2020/12/09 02:33:16;;;;;;;0.87;0.60;;;7.10;90.90;;;;;;5034189;28;20055;-62
2020/12/09 02:35:42;;;;;;;0.93;0.50;;;7.20;90.90;;;;;;5033672;28;20401;-62
2020/12/09 02:38:08;;;;;;;0.80;0.40;;;7.20;90.90;;;;;;5034024;28;20359;-62
2020/12/09 02:40:34;;;;;;;0.90;0.57;;;7.20;90.90;;;;;;5033808;28;20095;-62
2020/12/09 02:43:00;;;;;;;1.57;0.80;;;7.20;90.80;;;;;;5033992;28;20057;-62
2020/12/09 02:45:26;;;;;;;1.27;0.80;;;7.20;90.70;;;;;;5034023;28;20026;-62
2020/12/09 02:47:52;;;;;;;1.93;0.60;;;7.10;90.70;;;;;;5034090;28;20060;-62
2020/12/09 02:50:18;;;;;;;1.40;0.60;;;7.20;90.80;;;;;;5033625;28;20029;-62
2020/12/09 02:52:44;;;;;;;1.20;0.90;;;7.10;90.70;;;;;;5033648;28;20029;-62
2020/12/09 02:55:09;;;;;;;2.30;0.60;;;7.10;90.70;;;;;;5033513;28;20581;-62
2020/12/09 02:57:35;;;;;;;1.40;0.77;;;7.10;90.80;;;;;;5033494;28;20064;-62
2020/12/09 03:00:01;;;;;;;0.43;0.37;;;7.20;90.80;;;;;;5033814;28;20029;-62
2020/12/09 03:02:27;;;;;;;0.67;0.40;;;7.10;90.80;;;;;;5033583;28;20115;-62
2020/12/09 03:04:53;;;;;;;1.20;0.50;;;7.20;90.70;;;;;;5033764;28;20477;-62
2020/12/09 03:07:18;;;;;;;39.53;22.73;;;7.10;90.60;;;;;;5034037;28;20030;-62
2020/12/09 03:09:44;;;;;;;40.80;24.30;;;7.10;90.70;;;;;;5033677;28;20022;-62
2020/12/09 03:12:09;;;;;;;34.67;22.03;;;7.10;90.80;;;;;;5033584;28;20021;-62
2020/12/09 03:14:35;;;;;;;57.47;35.47;;;7.10;90.80;;;;;;5033605;28;20026;-62
2020/12/09 03:17:01;;;;;;;2.10;1.43;;;7.10;90.80;;;;;;5033426;28;20025;-63
2020/12/09 03:19:26;;;;;;;1.27;0.67;;;7.10;90.80;;;;;;5033561;28;20028;-62
2020/12/09 03:21:52;;;;;;;29.73;19.20;;;7.10;90.70;;;;;;5033333;28;20409;-62
2020/12/09 03:24:18;;;;;;;20.60;13.90;;;7.10;90.70;;;;;;5033314;28;20156;-62
2020/12/09 03:26:43;;;;;;;9.53;6.73;;;7.10;90.70;;;;;;5033086;28;20036;-62
2020/12/09 03:29:09;;;;;;;4.10;2.77;;;7.10;90.70;;;;;;5033183;28;20014;-62
2020/12/09 03:31:35;;;;;;;2.23;1.73;;;7.10;90.70;;;;;;5033676;28;20022;-62
2020/12/09 03:34:00;;;;;;;1.00;0.80;;;7.10;90.80;;;;;;5033264;28;20053;-62
2020/12/09 03:36:26;;;;;;;1.33;0.83;;;7.10;90.90;;;;;;5033012;28;20071;-62
2020/12/09 03:38:52;;;;;;;1.63;0.80;;;7.10;90.90;;;;;;5033437;28;20025;-62
2020/12/09 03:41:18;;;;;;;0.70;0.50;;;7.10;90.90;;;;;;5033170;28;20064;-62
2020/12/09 03:43:44;;;;;;;1.63;0.80;;;7.10;90.90;;;;;;5033482;28;20033;-62
2020/12/09 03:46:10;;;;;;;1.20;0.53;;;7.10;90.90;;;;;;5032917;28;20487;-62
2020/12/09 03:48:36;;;;;;;0.60;0.50;;;7.10;90.90;;;;;;5033015;28;20021;-62
2020/12/09 03:51:01;;;;;;;0.57;0.40;;;7.10;90.90;;;;;;5032929;28;20026;-62
2020/12/09 03:53:27;;;;;;;2.27;0.33;;;7.10;90.90;;;;;;5033164;28;20025;-62
2020/12/09 03:55:53;;;;;;;0.40;0.40;;;7.20;90.90;;;;;;5033021;28;20018;-61
2020/12/09 03:58:18;;;;;;;0.30;0.20;;;7.20;90.90;;;;;;5033365;28;20033;-62
2020/12/09 04:00:44;;;;;;;3.37;0.70;;;7.20;90.90;;;;;;5033099;28;20104;-62
2020/12/09 04:03:10;;;;;;;0.77;0.40;;;7.20;90.90;;;;;;5032974;28;20021;-62
2020/12/09 04:05:35;;;;;;;0.90;0.40;;;7.20;90.90;;;;;;5032846;28;20067;-62
2020/12/09 04:08:01;;;;;;;0.90;0.70;;;7.20;90.90;;;;;;5033088;28;20079;-62
2020/12/09 04:10:27;;;;;;;1.50;0.80;;;7.20;90.90;;;;;;5033082;28;20221;-62
2020/12/09 04:12:53;;;;;;;1.20;0.70;;;7.20;90.80;;;;;;5032715;28;20116;-62
2020/12/09 04:15:19;;;;;;;3.00;0.60;;;7.20;90.80;;;;;;5032666;28;20429;-62
2020/12/09 04:17:45;;;;;;;0.70;0.43;;;7.20;90.80;;;;;;5032685;28;20045;-62
2020/12/09 04:20:12;;;;;;;1.27;0.60;;;7.20;90.80;;;;;;5032945;28;20038;-62
2020/12/09 04:22:38;;;;;;;1.07;0.60;;;7.20;90.80;;;;;;5032965;28;20347;-63
2020/12/09 04:25:05;;;;;;;1.33;0.70;;;7.20;90.80;;;;;;5032479;28;20032;-62
2020/12/09 04:27:30;;;;;;;1.73;1.00;;;7.20;90.70;;;;;;5032778;28;20033;-62
2020/12/09 04:29:56;;;;;;;0.90;0.70;;;7.20;90.70;;;;;;5032749;28;20045;-62
2020/12/09 04:32:22;;;;;;;1.30;0.90;;;7.20;90.60;;;;;;5032645;28;20026;-62
2020/12/09 04:34:49;;;;;;;1.97;1.10;;;7.20;90.60;;;;;;5032798;28;20032;-62
2020/12/09 04:37:19;;;;;;;1.30;1.00;;;7.20;90.60;;;;;;5034296;28;20022;-62
2020/12/09 04:39:44;;;;;;;1.10;0.80;;;7.20;90.60;;;;;;5036390;28;20033;-62
2020/12/09 04:42:18;;;;;;;1.30;0.90;;;7.20;90.60;;;;;;5036535;28;20400;-62
2020/12/09 04:44:44;;;;;;;1.50;1.00;;;7.20;90.70;;;;;;5036048;28;20026;-62
2020/12/09 04:47:17;;;;;;;1.10;0.80;;;7.20;90.60;;;;;;5036347;28;20034;-62
2020/12/09 04:49:46;;;;;;;1.35;0.82;;;7.30;90.30;;;;;;5036136;28;20021;-62
2020/12/09 04:52:46;;;;;;;0.80;0.80;;;7.30;89.60;;;;;;5035987;28;20569;-62
2020/12/09 04:55:15;;;;;;;1.43;0.73;;;7.30;88.90;;;;;;5035914;28;20075;-62
2020/12/09 04:57:52;;;;;;;1.53;0.80;;;7.40;88.60;;;;;;5036356;28;20223;-61
2020/12/09 05:00:18;;;;;;;1.80;1.00;;;7.40;88.40;;;;;;5035893;28;20402;-62
2020/12/09 05:02:45;;;;;;;1.77;0.90;;;7.40;88.70;;;;;;5035822;28;20490;-62
2020/12/09 05:05:13;;;;;;;3.77;1.20;;;7.40;88.60;;;;;;5035458;28;20140;-62
2020/12/09 05:07:45;;;;;;;1.20;1.00;;;7.40;88.40;;;;;;5035876;28;20040;-61
2020/12/09 05:10:14;;;;;;;1.03;0.93;;;7.40;88.30;;;;;;5035876;28;20034;-62
2020/12/09 05:12:43;;;;;;;1.37;1.10;;;7.40;88.30;;;;;;5035766;28;20037;-61
2020/12/09 05:15:15;;;;;;;1.10;1.00;;;7.50;88.50;;;;;;5035217;28;20022;-62
2020/12/09 05:17:54;;;;;;;3.45;1.30;;;7.40;88.70;;;;;;5035525;28;20042;-61
2020/12/09 05:20:30;;;;;;;2.10;1.30;;;7.40;89.00;;;;;;5035699;28;20087;-62
2020/12/09 05:22:57;;;;;;;1.27;1.17;;;7.40;89.10;;;;;;5035768;28;20030;-62
2020/12/09 05:25:24;;;;;;;2.37;1.40;;;7.40;88.90;;;;;;5035481;28;20119;-62
2020/12/09 05:27:50;;;;;;;2.37;1.57;;;7.50;87.70;;;;;;5035705;28;20044;-62
2020/12/09 05:30:39;;;;;;;1.67;1.40;;;7.50;86.60;;;;;;5036422;28;20025;-62
2020/12/09 05:33:06;;;;;;;1.43;1.07;;;7.60;85.80;;;;;;5046363;28;20033;-62
2020/12/09 05:35:32;;;;;;;1.90;1.30;;;7.60;85.50;;;;;;5055277;28;20032;-61
2020/12/09 05:38:27;;;;;;;2.67;1.30;;;7.60;85.20;;;;;;5055566;28;20466;-62
2020/12/09 05:40:54;;;;;;;1.40;1.10;;;7.60;84.90;;;;;;5054826;28;20393;-62
2020/12/09 05:43:20;;;;;;;0.93;0.73;;;7.60;84.30;;;;;;5055178;28;20021;-61
2020/12/09 05:45:46;;;;;;;1.00;0.90;;;7.60;83.60;;;;;;5055072;28;20033;-61
2020/12/09 05:48:16;;;;;;;2.07;0.90;;;7.70;83.20;;;;;;5054408;28;20370;-62
2020/12/09 05:50:54;;;;;;;1.53;1.00;;;7.70;83.10;;;;;;5054913;28;20028;-62
2020/12/09 05:53:22;;;;;;;1.30;0.90;;;7.70;82.80;;;;;;5055262;28;20032;-62
2020/12/09 05:55:48;;;;;;;0.87;0.80;;;7.70;81.70;;;;;;5054921;28;20013;-61
2020/12/09 05:58:22;;;;;;;0.93;0.77;;;7.80;81.60;;;;;;5055197;28;20157;-61
2020/12/09 06:01:03;;;;;;;0.90;0.60;;;7.80;81.50;;;;;;5054800;28;20026;-62
2020/12/09 06:03:31;;;;;;;0.80;0.80;;;7.80;81.80;;;;;;5054916;28;20033;-62
2020/12/09 06:06:13;;;;;;;0.97;0.80;;;7.80;82.40;;;;;;5054779;28;20082;-62
2020/12/09 06:08:40;;;;;;;0.88;0.80;;;7.80;82.10;;;;;;5054635;28;20021;-62
2020/12/09 06:11:06;;;;;;;1.30;0.83;;;7.80;82.10;;;;;;5054568;28;20089;-62
2020/12/09 06:13:33;;;;;;;1.30;0.90;;;7.80;82.40;;;;;;5054547;28;20433;-62
2020/12/09 06:16:01;;;;;;;1.07;0.80;;;7.70;82.50;;;;;;5054614;28;20102;-61
2020/12/09 06:18:30;;;;;;;0.83;0.67;;;7.80;83.30;;;;;;5054384;28;20524;-62
2020/12/09 06:20:56;;;;;;;0.80;0.60;;;7.70;83.00;;;;;;5054609;28;20036;-62
2020/12/09 06:23:22;;;;;;;0.80;0.63;;;7.70;82.50;;;;;;5054445;28;20025;-62
2020/12/09 06:25:48;;;;;;;0.67;0.57;;;7.80;82.50;;;;;;5054220;28;20040;-62
2020/12/09 06:28:20;;;;;;;0.50;0.50;;;7.70;82.60;;;;;;5054272;28;20029;-62
2020/12/09 06:30:46;;;;;;;0.80;0.60;;;7.80;82.50;;;;;;5054449;28;20028;-62
2020/12/09 06:33:12;;;;;;;0.83;0.60;;;7.80;82.60;;;;;;5054362;28;20033;-62
2020/12/09 06:35:39;;;;;;;0.83;0.50;;;7.70;82.50;;;;;;5054523;28;20025;-62
2020/12/09 06:38:08;;;;;;;4.53;0.70;;;7.70;83.10;;;;;;5054204;28;20036;-62
2020/12/09 06:40:56;;;;;;;1.07;0.60;;;7.70;83.70;;;;;;5052058;28;20041;-61
2020/12/09 06:43:22;;;;;;;1.50;0.57;;;7.70;84.30;;;;;;5033467;28;20038;-61
2020/12/09 06:45:49;;;;;;;2.67;0.60;;;7.60;84.60;;;;;;5041134;28;20048;-62
2020/12/09 06:48:16;;;;;;;0.80;0.50;;;7.60;84.40;;;;;;5033995;28;20394;-61
2020/12/09 06:50:43;;;;;;;1.13;0.50;;;7.70;83.90;;;;;;5033913;28;20025;-61
2020/12/09 06:53:19;;;;;;;1.33;0.53;;;7.60;84.00;;;;;;5034078;28;20371;-62
2020/12/09 06:55:46;;;;;;;0.57;0.50;;;7.60;84.10;;;;;;5033818;28;20030;-61
2020/12/09 06:58:30;;;;;;;1.37;0.67;;;7.60;84.10;;;;;;5034122;28;20032;-61
2020/12/09 07:01:09;;;;;;;1.00;0.60;;;7.60;84.30;;;;;;5033777;28;20501;-61
2020/12/09 07:03:37;;;;;;;1.30;0.70;;;7.60;85.20;;;;;;5033790;28;20028;-62
2020/12/09 07:06:21;;;;;;;0.77;0.53;;;7.60;84.90;;;;;;5033602;28;20485;-61
2020/12/09 07:08:48;;;;;;;1.40;0.50;;;7.60;84.70;;;;;;5033748;28;20029;-61
2020/12/09 07:11:15;;;;;;;0.83;0.50;;;7.60;84.50;;;;;;5039329;28;20515;-61
2020/12/09 07:13:40;;;;;;;0.60;0.40;;;7.60;84.00;;;;;;5043173;28;20490;-60
2020/12/09 07:16:06;;;;;;;0.40;0.40;;;7.60;83.60;;;;;;5039055;28;20044;-61
2020/12/09 07:18:36;;;;;;;0.47;0.30;;;7.60;82.70;;;;;;5038612;28;20045;-61
2020/12/09 07:21:05;;;;;;;0.87;0.50;;;7.60;83.30;;;;;;5045586;28;20041;-60
2020/12/09 07:23:31;;;;;;;0.90;0.60;;;7.60;83.10;;;;;;5032036;28;20025;-62
2020/12/09 07:25:59;;;;;;;1.13;0.70;;;7.60;83.20;;;;;;5032979;28;20390;-62
2020/12/09 07:28:31;;;;;;;1.17;0.90;;;7.50;83.40;;;;;;5033441;28;20030;-63
2020/12/09 07:31:04;;;;;;;2.17;0.90;;;7.50;83.40;;;;;;5033528;28;20106;-62
2020/12/09 07:33:29;;;;;;;1.48;1.00;;;7.50;83.80;;;;;;5033265;28;20029;-61
2020/12/09 07:36:05;;;;;;;0.63;0.50;;;7.50;84.00;;;;;;5033314;28;20030;-61
2020/12/09 07:38:31;;;;;;;0.70;0.60;;;7.50;84.30;;;;;;5033094;28;20489;-63
2020/12/09 07:41:01;;;;;;;0.90;0.80;;;7.50;84.10;;;;;;5031774;28;20033;-64
2020/12/09 07:43:28;;;;;;;1.90;0.57;;;7.50;84.20;;;;;;5037656;28;20029;-62
2020/12/09 07:46:01;;;;;;;1.37;0.73;;;7.50;84.20;;;;;;5050604;28;20371;-64
2020/12/09 07:48:30;;;;;;;1.30;0.70;;;7.50;84.20;;;;;;5033088;28;20038;-61
2020/12/09 07:50:56;;;;;;;1.50;0.60;;;7.50;84.50;;;;;;5032919;28;20027;-63
2020/12/09 07:53:22;;;;;;;1.17;0.60;;;7.50;84.80;;;;;;5031573;28;20049;-61
2020/12/09 07:55:48;;;;;;;1.40;0.90;;;7.50;84.60;;;;;;5033128;28;20099;-63
2020/12/09 07:58:17;;;;;;;0.77;0.60;;;7.50;84.40;;;;;;5032973;28;20549;-64
2020/12/09 08:00:47;;;;;;;3.30;0.60;;;7.50;84.30;;;;;;5033327;28;20018;-63
2020/12/09 08:03:20;;;;;;;1.33;0.53;;;7.50;84.10;;;;;;5033168;28;20104;-63
2020/12/09 08:05:46;;;;;;;0.73;0.52;;;7.60;84.60;;;;;;5033013;28;20084;-61
2020/12/09 08:08:12;;;;;;;0.43;0.40;;;7.60;83.40;;;;;;5032899;28;20064;-61
2020/12/09 08:10:43;;;;;;;0.80;0.60;;;7.60;83.30;;;;;;5033209;28;20057;-61
2020/12/09 08:13:26;;;;;;;0.50;0.40;;;7.70;82.50;;;;;;5036042;28;20063;-64
2020/12/09 08:16:06;;;;;;;0.90;0.60;;;7.70;81.40;;;;;;5037026;28;20033;-63
2020/12/09 08:18:32;;;;;;;1.30;0.80;;;7.70;80.50;;;;;;5036693;28;20042;-63
2020/12/09 08:20:58;;;;;;;1.27;0.70;;;7.80;79.00;;;;;;5037134;28;20025;-63
2020/12/09 08:23:46;;;;;;;0.70;0.50;;;7.80;79.40;;;;;;5036945;28;20529;-63
2020/12/09 08:26:12;;;;;;;0.67;0.57;;;7.90;78.20;;;;;;5036749;28;20034;-64
2020/12/09 08:28:38;;;;;;;1.67;0.70;;;7.90;78.60;;;;;;5036964;28;20013;-64
2020/12/09 08:31:15;;;;;;;0.70;0.50;;;7.90;78.30;;;;;;5037045;28;20029;-63
2020/12/09 08:33:41;;;;;;;0.90;0.70;;;7.90;77.20;;;;;;5036970;28;20025;-63
2020/12/09 08:36:09;;;;;;;0.73;0.53;;;7.90;76.90;;;;;;5036654;28;20109;-63
2020/12/09 08:38:49;;;;;;;0.70;0.50;;;8.00;76.70;;;;;;5036727;28;20029;-63
2020/12/09 08:41:17;;;;;;;1.93;0.70;;;8.00;76.10;;;;;;5036505;28;20057;-64
2020/12/09 08:43:44;;;;;;;1.67;0.77;;;8.00;76.20;;;;;;5036586;28;20104;-63
2020/12/09 08:46:11;;;;;;;0.67;0.50;;;8.10;76.70;;;;;;5036365;28;20390;-63
2020/12/09 08:48:40;;;;;;;0.83;0.50;;;8.20;76.50;;;;;;5036530;28;20500;-63
2020/12/09 08:51:07;;;;;;;1.20;0.43;;;8.20;75.80;;;;;;5036490;28;20100;-63
2020/12/09 08:53:33;;;;;;;0.80;0.60;;;8.20;75.60;;;;;;5036324;28;20072;-63
2020/12/09 08:55:59;;;;;;;1.90;0.70;;;8.20;75.60;;;;;;5036265;28;20032;-63
2020/12/09 08:58:25;;;;;;;1.00;0.67;;;8.20;75.70;;;;;;5036301;28;20025;-64
2020/12/09 09:00:51;;;;;;;0.87;0.60;;;8.30;76.20;;;;;;5036135;28;20044;-63
2020/12/09 09:03:20;;;;;;;1.53;0.80;;;8.30;76.20;;;;;;5036383;28;20029;-64
2020/12/09 09:05:53;;;;;;;1.40;0.90;;;8.30;76.00;;;;;;5036042;28;20033;-63
2020/12/09 09:08:19;;;;;;;2.03;0.80;;;8.30;75.70;;;;;;5036143;28;20076;-64
2020/12/09 09:10:45;;;;;;;1.23;0.70;;;8.30;76.00;;;;;;5036088;28;20108;-63
2020/12/09 09:13:11;;;;;;;1.53;0.77;;;8.30;76.10;;;;;;5036146;28;20029;-63
2020/12/09 09:15:38;;;;;;;2.00;0.87;;;8.30;76.40;;;;;;5035867;28;20025;-64
2020/12/09 09:18:04;;;;;;;1.57;1.07;;;8.30;76.30;;;;;;5035926;28;20049;-63
2020/12/09 09:20:31;;;;;;;1.07;0.70;;;8.30;76.00;;;;;;5035859;28;20032;-64
2020/12/09 09:22:57;;;;;;;1.00;0.63;;;8.30;76.10;;;;;;5035293;28;20026;-63
2020/12/09 09:25:23;;;;;;;2.37;0.50;;;8.30;76.10;;;;;;5036004;28;20382;-63
2020/12/09 09:27:50;;;;;;;0.80;0.60;;;8.30;76.20;;;;;;5035519;28;20026;-63
2020/12/09 09:30:17;;;;;;;1.10;0.77;;;8.30;76.50;;;;;;5035776;28;20036;-61
2020/12/09 09:32:43;;;;;;;4.53;0.60;;;8.30;76.50;;;;;;5035714;28;20026;-61
2020/12/09 09:35:09;;;;;;;0.80;0.50;;;8.30;76.20;;;;;;5035618;28;20025;-63
2020/12/09 09:37:35;;;;;;;0.97;0.73;;;8.30;76.30;;;;;;5035540;28;20471;-63
2020/12/09 09:40:01;;;;;;;1.20;0.80;;;8.30;77.00;;;;;;5035574;28;20033;-63
2020/12/09 09:42:27;;;;;;;1.07;0.83;;;8.30;76.50;;;;;;5035424;28;20375;-63
2020/12/09 09:44:53;;;;;;;4.73;0.93;;;8.30;76.80;;;;;;5035132;28;20036;-64
2020/12/09 09:47:19;;;;;;;1.43;0.90;;;8.30;76.80;;;;;;5034777;28;20044;-64
2020/12/09 09:49:44;;;;;;;1.30;1.00;;;8.30;76.70;;;;;;5033797;28;20037;-64
2020/12/09 09:52:10;;;;;;;1.20;0.70;;;8.30;77.00;;;;;;5034583;28;20586;-66
2020/12/09 09:54:36;;;;;;;1.53;0.70;;;8.30;76.70;;;;;;5052476;28;20033;-63
2020/12/09 09:57:03;;;;;;;0.83;0.60;;;8.30;76.80;;;;;;5054044;28;20036;-63
2020/12/09 09:59:29;;;;;;;1.17;0.73;;;8.30;76.70;;;;;;5049531;28;20027;-63
2020/12/09 10:01:56;;;;;;;1.07;0.70;;;8.30;76.90;;;;;;5050832;28;20033;-64
2020/12/09 10:04:22;;;;;;;1.67;1.00;;;8.30;76.80;;;;;;5053572;28;20039;-71
2020/12/09 10:06:50;;;;;;;1.47;0.87;;;8.30;76.50;;;;;;5053979;28;20033;-70
2020/12/09 10:09:16;;;;;;;1.70;0.73;;;8.20;76.70;;;;;;5054302;28;20029;-64
2020/12/09 10:11:42;;;;;;;1.00;0.60;;;8.20;76.40;;;;;;5054216;28;20371;-64
2020/12/09 10:14:07;;;;;;;1.83;0.80;;;8.20;76.50;;;;;;5054109;28;20474;-64
2020/12/09 10:16:34;;;;;;;1.50;0.73;;;8.20;75.50;;;;;;5054097;28;20078;-63
2020/12/09 10:19:00;;;;;;;1.33;0.90;;;8.20;76.40;;;;;;5053994;28;20041;-69
2020/12/09 10:21:35;;;;;;;1.40;0.87;;;8.20;76.30;;;;;;5054045;28;20029;-63
2020/12/09 10:24:03;;;;;;;1.30;0.80;;;8.20;76.50;;;;;;5053933;28;20074;-63
2020/12/09 10:26:34;;;;;;;1.80;1.00;;;8.20;76.90;;;;;;5053760;28;20041;-61
2020/12/09 10:29:01;;;;;;;1.10;0.80;;;8.20;77.50;;;;;;5053896;28;20067;-62
2020/12/09 10:31:38;;;;;;;1.00;0.70;;;8.20;78.10;;;;;;5054237;28;20024;-62
2020/12/09 10:34:05;;;;;;;1.63;1.00;;;8.20;77.80;;;;;;5053262;28;20025;-62
2020/12/09 10:36:31;;;;;;;2.07;1.03;;;8.20;78.10;;;;;;5053506;28;20029;-62
2020/12/09 10:38:57;;;;;;;1.27;1.10;;;8.20;78.90;;;;;;5053783;28;20028;-61
2020/12/09 10:41:23;;;;;;;2.27;1.47;;;8.20;78.80;;;;;;5053674;28;20029;-62
2020/12/09 10:43:52;;;;;;;4.43;1.40;;;8.20;78.90;;;;;;5053755;28;20025;-61
2020/12/09 10:46:28;;;;;;;2.47;1.30;;;8.20;79.00;;;;;;5053048;28;20055;-62
2020/12/09 10:48:54;;;;;;;3.27;1.50;;;8.20;78.90;;;;;;5053666;28;20017;-62
2020/12/09 10:51:20;;;;;;;1.27;0.87;;;8.20;79.30;;;;;;5053515;28;20024;-63
2020/12/09 10:53:45;;;;;;;1.37;0.90;;;8.20;78.60;;;;;;5053458;28;20021;-62
2020/12/09 10:56:11;;;;;;;1.37;0.97;;;8.20;77.70;;;;;;5053291;28;20044;-62
2020/12/09 10:58:37;;;;;;;1.50;1.00;;;8.30;78.50;;;;;;5053523;28;20036;-61
2020/12/09 11:01:03;;;;;;;1.47;1.17;;;8.20;79.30;;;;;;5052838;28;20025;-62
2020/12/09 11:03:29;;;;;;;2.17;1.20;;;8.20;79.80;;;;;;5053474;28;20040;-62
2020/12/09 11:05:55;;;;;;;3.63;1.63;;;8.20;79.60;;;;;;5053180;28;20028;-62
2020/12/09 11:08:21;;;;;;;2.23;1.10;;;8.20;79.60;;;;;;5053208;28;20024;-64
2020/12/09 11:10:47;;;;;;;1.57;1.10;;;8.20;80.00;;;;;;5053151;28;20387;-61
2020/12/09 11:13:12;;;;;;;1.83;1.00;;;8.20;79.60;;;;;;5053260;28;20366;-62
2020/12/09 11:15:39;;;;;;;2.00;1.03;;;8.10;79.10;;;;;;5053096;28;20055;-62
2020/12/09 11:18:04;;;;;;;0.83;0.67;;;8.10;79.10;;;;;;5052883;28;20056;-62
2020/12/09 11:20:30;;;;;;;1.13;0.80;;;8.10;79.50;;;;;;5052742;28;20393;-62
2020/12/09 11:22:56;;;;;;;1.50;1.00;;;8.10;79.10;;;;;;5052905;28;20021;-62
2020/12/09 11:25:23;;;;;;;0.90;0.80;;;8.10;79.80;;;;;;5053111;28;20166;-68
2020/12/09 11:27:49;;;;;;;0.87;0.67;;;8.20;80.10;;;;;;5052839;28;20040;-62
2020/12/09 11:30:15;;;;;;;1.60;0.90;;;8.20;80.10;;;;;;5052750;28;20465;-62
2020/12/09 11:32:41;;;;;;;1.50;1.10;;;8.20;80.00;;;;;;5053007;28;20036;-62
2020/12/09 11:35:06;;;;;;;6.43;1.50;;;8.20;80.00;;;;;;5052302;28;20025;-62
2020/12/09 11:37:33;;;;;;;4.53;1.60;;;8.20;80.30;;;;;;5052516;28;20025;-62
2020/12/09 11:39:59;;;;;;;1.30;1.07;;;8.30;80.70;;;;;;5053382;28;20090;-62
2020/12/09 11:42:25;;;;;;;2.73;1.40;;;8.30;81.10;;;;;;5053017;28;20469;-62
2020/12/09 11:44:51;;;;;;;1.63;1.00;;;8.30;81.40;;;;;;5053074;28;20033;-63
2020/12/09 11:47:17;;;;;;;1.40;0.80;;;8.30;80.90;;;;;;5052082;28;20116;-62
2020/12/09 11:49:42;;;;;;;0.80;0.63;;;8.30;80.00;;;;;;5053186;28;20110;-62
2020/12/09 11:52:08;;;;;;;1.13;0.90;;;8.30;79.60;;;;;;5053310;28;20473;-62
2020/12/09 11:54:34;;;;;;;1.40;0.90;;;8.30;79.90;;;;;;5053082;28;20021;-62
2020/12/09 11:57:01;;;;;;;1.23;0.80;;;8.30;79.00;;;;;;5053190;28;20029;-62
2020/12/09 11:59:27;;;;;;;1.03;0.77;;;8.30;78.90;;;;;;5053037;28;20059;-62
2020/12/09 12:01:53;;;;;;;1.10;1.00;;;8.30;78.40;;;;;;5052877;28;20466;-62
2020/12/09 12:04:19;;;;;;;1.43;0.90;;;8.40;77.90;;;;;;5053376;28;20104;-62
2020/12/09 12:06:45;;;;;;;0.97;0.53;;;8.40;78.40;;;;;;5052811;28;20033;-62
2020/12/09 12:09:11;;;;;;;1.20;0.70;;;8.40;78.50;;;;;;5052960;28;20021;-62
2020/12/09 12:11:37;;;;;;;1.20;0.70;;;8.40;78.10;;;;;;5053207;28;20119;-62
2020/12/09 12:14:02;;;;;;;2.43;1.40;;;8.40;77.70;;;;;;5053065;28;20379;-62
2020/12/09 12:16:28;;;;;;;0.97;0.70;;;8.40;78.00;;;;;;5052558;28;20051;-62
2020/12/09 12:18:54;;;;;;;0.90;0.60;;;8.40;77.70;;;;;;5052675;28;20053;-63
2020/12/09 12:21:22;;;;;;;1.20;0.60;;;8.40;77.30;;;;;;5050770;28;20029;-63
2020/12/09 12:23:49;;;;;;;1.73;0.80;;;8.40;77.20;;;;;;5049879;28;20041;-65
2020/12/09 12:26:20;;;;;;;0.90;0.60;;;8.40;77.00;;;;;;5049911;28;20048;-64
2020/12/09 12:28:46;;;;;;;1.37;0.70;;;8.40;76.70;;;;;;5052449;28;20025;-63
2020/12/09 12:31:14;;;;;;;1.00;0.60;;;8.50;76.20;;;;;;5052670;28;20036;-63
2020/12/09 12:33:40;;;;;;;1.43;0.87;;;8.50;75.00;;;;;;5052379;28;20022;-64
2020/12/09 12:36:07;;;;;;;1.73;1.00;;;8.50;75.20;;;;;;5052438;28;20154;-64
2020/12/09 12:38:33;;;;;;;2.17;1.40;;;8.50;75.30;;;;;;5052679;28;20067;-64
2020/12/09 12:40:59;;;;;;;2.10;1.40;;;8.50;75.40;;;;;;5052174;28;20021;-64
2020/12/09 12:43:25;;;;;;;6.57;2.67;;;8.50;75.60;;;;;;5052225;28;20051;-63
2020/12/09 12:45:51;;;;;;;2.70;1.90;;;8.50;75.30;;;;;;5052655;28;20025;-64
2020/12/09 12:48:16;;;;;;;1.47;1.00;;;8.60;75.40;;;;;;5052631;28;20437;-64
2020/12/09 12:50:43;;;;;;;1.70;1.53;;;8.60;75.00;;;;;;5052344;28;20481;-64
2020/12/09 12:53:09;;;;;;;1.40;0.70;;;8.60;74.70;;;;;;5052218;28;20029;-65
2020/12/09 12:55:36;;;;;;;1.40;0.80;;;8.60;74.10;;;;;;5052221;28;20029;-64
2020/12/09 12:58:03;;;;;;;18.17;6.67;;;8.60;74.30;;;;;;5053399;28;20029;-64
2020/12/09 13:00:28;;;;;;;9.93;1.90;;;8.60;73.50;;;;;;5056325;28;20020;-64